New York, NY (10107)

5:14 PM EST on December 06, 2016 (GMT -0500)
NEW YORK CITY | | Change Station

Elev 164 ft 40.78 °N, 73.98 °W | Updated 55 seconds ago

Overcast
Overcast
46.9 °F
Feels Like 47 °F
N
2.2
Wind Variable Wind from WNW

Today
High -- | Low -- °F
--% Chance of Precip.
Yesterday
High -- | Low -- °F
Precip. -- in
Pressure 29.97 in
Visibility 10.0 miles
Clouds Mostly Cloudy 7000 ft
Overcast 8000 ft
Windchill 47 °F
Dew Point 33 °F
Humidity 58%
Rainfall 0.00 in
Snow Depth Not available.
7:06 AM 4:28 PM
Waxing Crescent, 45% visible
METAR KNYC 062151Z AUTO 14006KT 10SM BKN070 OVC080 07/M01 A2999 RMK AO2 SLP149 T00721011 $
Pressure 29.97 in
Visibility 10.0 miles
Clouds Mostly Cloudy 7000 ft
Overcast 8000 ft
Windchill 47 °F
Dew Point 33 °F
Humidity 58%
Rainfall 0.00 in
Snow Depth Not available.
7:06 AM 4:28 PM
Waxing Crescent, 45% visible
METAR KNYC 062151Z AUTO 14006KT 10SM BKN070 OVC080 07/M01 A2999 RMK AO2 SLP149 T00721011 $

10-Day Weather Forecast

Almanac

Astronomy

Dec. 06, 2016 Rise Set
Actual Time
Civil Twilight
Nautical Twilight
Astronomical Twilight
Moon
Length of Visible Light
Length of Day
Tomorrow will be .
, % of the Moon is Illuminated

Today's Extremes

State Highs State Lows

Community

WunderPhotos

Upload Photos

1,956,038 photos uploaded!

WunderBlog® & News

Nearby

Air Quality

  Air Quality AQ Index Pollutant
Not available.

Snow Depth

Station Depth Elevation

Earthquake Activity

City Distance Mag. Time & Date
Minimum magnitude displayed is 2.5.

Coastal Water Temperatures

Place Temperature

Stations

Nearby Weather Stations

Station Location Temp. Windchill Dew Point Humidity Wind Precip. Elev Updated Type
                   

Watches & Warnings

There are currently no watches in effect.